Humidity-temperature Sensor

Selected Measurement Type: Air Temperature

 
Air Temperature [°C]     6 entries per hour
Showing data from 11/4/2014 (00:00:00 Z) to 11/1/2014 (00:01:00 Z)
Previous Next [ Day | 3-Days | 7-Days ]
First Last
Prev [ Day | 3-Days | 7-Days ] Next
First Last

Start Time:     :
End Time:     :     
Time (in GMT) :00 :50 :40 :30 :20 :10
Previous Next [ Day | 3-Days | 7-Days ]
First Last
Prev [ Day | 3-Days | 7-Days ] Next
First Last


123 => good data
MM => data is determined as missing
-- => data not received/configured
Back to Top Back to Top
11/4/2014 00:00 to 23:10 26.12 25.98 25.93 26.07 26.35 26.07
11/3/2014 23:00 to 22:10 26.01 26.00 26.06 26.04 25.95 25.97
11/3/2014 22:00 to 21:10 25.91 25.81 26.08 25.99 26.04 26.05
11/3/2014 21:00 to 20:10 25.97 26.01 26.16 25.86 26.03 25.93
11/3/2014 20:00 to 19:10 25.97 25.94 26.05 25.96 25.98 26.04
11/3/2014 19:00 to 18:10 26.04 26.00 25.99 26.00 26.29 26.05
11/3/2014 18:00 to 17:10 26.09 26.04 26.16 26.03 25.95 26.08
11/3/2014 17:00 to 16:10 26.22 26.14 26.34 26.05 26.21 26.46
11/3/2014 16:00 to 15:10 26.18 26.39 26.23 25.83 25.97 25.71
11/3/2014 15:00 to 14:10 25.86 25.98 25.86 25.64 25.53 25.62
11/3/2014 14:00 to 13:10 25.46 25.51 25.60 25.56 25.49 25.44
11/3/2014 13:00 to 12:10 25.55 25.56 25.55 25.45 25.40 25.43
11/3/2014 12:00 to 11:10 25.53 25.54 25.25 25.44 25.31 25.45
11/3/2014 11:00 to 10:10 25.45 25.61 25.46 25.54 25.51 25.36
11/3/2014 10:00 to 9:10 25.54 25.55 25.57 25.56 25.65 25.73
11/3/2014 09:00 to 8:10 25.67 25.56 25.62 25.62 25.76 25.71
11/3/2014 08:00 to 7:10 25.94 25.83 25.79 25.86 25.74 25.76
11/3/2014 07:00 to 6:10 25.90 26.00 25.95 25.83 25.92 25.90
11/3/2014 06:00 to 5:10 25.86 25.91 26.02 26.06 25.97 26.16
11/3/2014 05:00 to 4:10 25.89 26.11 25.90 25.98 25.87 26.13
11/3/2014 04:00 to 3:10 25.97 26.09 25.90 26.04 25.99 25.93
11/3/2014 03:00 to 2:10 25.95 25.92 25.99 26.02 25.96 26.19
11/3/2014 02:00 to 1:10 26.06 26.10 26.31 26.32 26.55 26.57
11/3/2014 01:00 to 0:10 26.35 26.31 26.26 26.32 26.44 26.28
11/3/2014 00:00 to 23:10 26.35 26.19 26.24 26.23 26.35 26.27
11/2/2014 23:00 to 22:10 26.15 26.19 26.18 26.20 26.06 26.09
11/2/2014 22:00 to 21:10 26.09 26.20 26.14 26.19 26.28 26.10
11/2/2014 21:00 to 20:10 26.22 26.04 26.15 26.10 25.93 26.20
11/2/2014 20:00 to 19:10 26.36 26.24 26.09 26.15 26.20 26.21
11/2/2014 19:00 to 18:10 26.19 26.42 26.21 26.28 26.42 26.11
11/2/2014 18:00 to 17:10 26.32 26.27 26.18 26.25 26.27 26.36
11/2/2014 17:00 to 16:10 26.36 26.30 26.34 26.29 26.52 26.56
11/2/2014 16:00 to 15:10 26.36 26.31 26.53 26.39 26.45 26.38
11/2/2014 15:00 to 14:10 26.34 26.27 26.13 26.21 26.01 25.97
11/2/2014 14:00 to 13:10 25.93 25.96 25.87 25.70 25.69 25.69
11/2/2014 13:00 to 12:10 25.62 25.66 25.65 25.29 25.65 25.59
11/2/2014 12:00 to 11:10 25.46 25.61 25.47 25.60 25.59 25.63
11/2/2014 11:00 to 10:10 25.64 25.61 25.64 25.40 25.65 25.60
11/2/2014 10:00 to 9:10 25.76 25.76 25.61 25.64 25.68 25.59
11/2/2014 09:00 to 8:10 25.62 25.63 25.65 25.81 25.83 25.77
11/2/2014 08:00 to 7:10 25.65 25.78 25.75 25.76 25.79 25.82
11/2/2014 07:00 to 6:10 25.69 25.64 25.54 25.80 25.74 25.59
11/2/2014 06:00 to 5:10 25.81 25.65 25.81 25.75 25.85 25.94
11/2/2014 05:00 to 4:10 -- -- -- -- -- --
11/2/2014 04:00 to 3:10 25.89 25.89 25.87 25.72 25.72 25.88
11/2/2014 03:00 to 2:10 25.73 25.75 25.70 25.74 25.94 25.90
11/2/2014 02:00 to 1:10 25.73 25.79 25.86 25.85 26.00 26.14
11/2/2014 01:00 to 0:10 26.03 25.84 26.01 25.84 25.68 25.78
11/2/2014 00:00 to 23:10 26.02 25.92 26.07 26.07 25.77 25.79
11/1/2014 23:00 to 22:10 25.94 25.78 26.01 25.99 25.90 25.59
11/1/2014 22:00 to 21:10 25.25 25.80 25.93 25.84 25.77 25.73
11/1/2014 21:00 to 20:10 25.72 25.74 25.77 25.88 25.78 25.81
11/1/2014 20:00 to 19:10 25.78 25.89 25.75 25.74 25.78 25.66
11/1/2014 19:00 to 18:10 25.78 25.72 25.68 25.92 25.73 25.72
11/1/2014 18:00 to 17:10 25.67 25.64 25.76 25.68 25.56 25.71
11/1/2014 17:00 to 16:10 25.88 25.80 25.88 25.78 25.97 26.02
11/1/2014 16:00 to 15:10 26.01 25.81 25.64 25.43 25.51 26.12
11/1/2014 15:00 to 14:10 25.88 25.76 25.75 25.50 25.39 25.45
11/1/2014 14:00 to 13:10 25.33 25.39 25.34 25.37 25.38 25.36
11/1/2014 13:00 to 12:10 25.32 25.32 25.31 25.34 25.26 25.30
11/1/2014 12:00 to 11:10 25.22 25.27 25.28 25.37 25.33 25.34
11/1/2014 11:00 to 10:10 25.38 25.41 25.29 25.39 25.44 25.37
11/1/2014 10:00 to 9:10 25.55 25.45 25.29 25.34 25.45 25.33
11/1/2014 09:00 to 8:10 25.54 25.48 25.58 25.38 25.54 25.60
11/1/2014 08:00 to 7:10 25.53 25.65 25.59 25.63 25.58 25.62
11/1/2014 07:00 to 6:10 25.50 25.62 25.53 25.60 25.78 25.66
11/1/2014 06:00 to 5:10 25.53 25.73 25.72 25.61 25.78 25.74
11/1/2014 05:00 to 4:10 25.60 25.65 25.69 25.62 25.74 25.56
11/1/2014 04:00 to 3:10 25.64 25.66 25.72 25.71 25.70 25.69
11/1/2014 03:00 to 2:10 25.69 25.64 25.80 25.74 25.76 25.63
11/1/2014 02:00 to 1:10 25.74 25.93 25.87 25.93 25.99 25.89
11/1/2014 01:00 to 0:10 26.13 26.05 26.04 26.04 26.13 26.00